Time;durP1;ratioP1;P1;durP2;ratioP2;P2;SDS_P1;SDS_P2;PMS_P1;PMS_P2;Temp;Humidity;BMP_temperature;BMP_pressure;BME280_temperature;BME280_humidity;BME280_pressure;Samples;Min_cycle;Max_cycle;Signal;HPM_P1;HPM_P2
2022/10/30 00:01:15;;;;;;;21.73;12.70;;;;;;;13.90;98.75;101605.75;5015179;28;20088;-65
2022/10/30 00:03:41;;;;;;;21.85;13.18;;;;;;;13.94;98.81;101607.78;5008485;28;20066;-67
2022/10/30 00:06:06;;;;;;;21.77;12.68;;;;;;;13.92;99.14;101604.41;5008210;28;20033;-66
2022/10/30 00:08:32;;;;;;;24.10;13.68;;;;;;;13.94;98.66;101599.50;5009086;28;20030;-67
2022/10/30 00:11:05;;;;;;;24.27;13.77;;;;;;;13.88;98.99;101611.47;5022835;28;20095;-67
2022/10/30 00:13:30;;;;;;;23.30;13.57;;;;;;;13.86;98.99;101610.03;4989613;28;20092;-64
2022/10/30 00:15:55;;;;;;;22.70;12.18;;;;;;;13.82;98.90;101601.38;5008002;28;20033;-66
2022/10/30 00:18:20;;;;;;;21.15;12.75;;;;;;;13.80;99.30;101603.53;5009225;28;20030;-64
2022/10/30 00:20:47;;;;;;;20.67;12.52;;;;;;;13.79;99.67;101607.38;5021312;28;20415;-66
2022/10/30 00:23:12;;;;;;;19.55;12.77;;;;;;;13.74;99.74;101608.06;5028237;28;20053;-67
2022/10/30 00:25:38;;;;;;;24.73;12.77;;;;;;;13.73;99.60;101605.53;5028745;28;20609;-67
2022/10/30 00:28:05;;;;;;;20.70;12.30;;;;;;;13.71;99.59;101614.06;5028346;28;20033;-67
2022/10/30 00:30:30;;;;;;;21.88;13.23;;;;;;;13.64;99.41;101602.25;5016931;28;20026;-67
2022/10/30 00:32:56;;;;;;;27.35;13.45;;;;;;;13.64;100.00;101604.19;5028355;28;20052;-67
2022/10/30 00:35:21;;;;;;;20.63;12.77;;;;;;;13.58;99.72;101594.88;5028047;28;20377;-67
2022/10/30 00:37:46;;;;;;;21.33;12.67;;;;;;;13.57;100.00;101592.38;5028272;28;20033;-66
2022/10/30 00:40:16;;;;;;;25.90;13.23;;;;;;;13.52;100.00;101597.75;5022936;28;20293;-64
2022/10/30 00:42:42;;;;;;;25.88;15.27;;;;;;;13.47;100.00;101601.19;5020853;28;20499;-67
2022/10/30 00:45:11;;;;;;;25.38;14.13;;;;;;;13.43;100.00;101586.16;5006826;28;20026;-67
2022/10/30 00:47:43;;;;;;;24.38;13.93;;;;;;;13.40;100.00;101590.25;5008559;28;20040;-67
2022/10/30 00:50:35;;;;;;;27.20;14.75;;;;;;;13.39;100.00;101593.25;5011523;28;20516;-67
2022/10/30 00:53:12;;;;;;;26.42;13.43;;;;;;;13.32;100.00;101598.81;5026565;28;20041;-68
2022/10/30 00:55:43;;;;;;;22.80;14.25;;;;;;;13.33;100.00;101599.66;5028113;28;20017;-68
2022/10/30 00:58:12;;;;;;;25.40;14.23;;;;;;;13.24;100.00;101593.63;5013894;28;20041;-67
2022/10/30 01:00:42;;;;;;;22.77;14.77;;;;;;;13.24;100.00;101588.13;5019218;28;20044;-64
2022/10/30 01:03:08;;;;;;;22.67;13.68;;;;;;;13.22;100.00;101601.28;5027689;28;20025;-66
2022/10/30 01:05:35;;;;;;;25.45;13.27;;;;;;;13.14;100.00;101596.06;5027460;28;20052;-66
2022/10/30 01:08:00;;;;;;;25.60;13.98;;;;;;;13.13;100.00;101597.13;5027442;28;20091;-65
2022/10/30 01:10:25;;;;;;;27.52;14.85;;;;;;;13.11;100.00;101591.81;5027826;28;20472;-65
2022/10/30 01:12:52;;;;;;;25.95;14.02;;;;;;;13.08;100.00;101596.97;5011961;28;20056;-67
2022/10/30 01:15:25;;;;;;;25.70;14.15;;;;;;;13.06;100.00;101590.84;5019908;28;20352;-66
2022/10/30 01:18:10;;;;;;;25.08;14.13;;;;;;;13.10;100.00;101597.59;5022898;28;20113;-67
2022/10/30 01:21:09;;;;;;;22.08;13.05;;;;;;;13.11;100.00;101602.88;5016764;28;20057;-67
2022/10/30 01:23:43;;;;;;;21.40;13.70;;;;;;;13.09;100.00;101599.50;5010493;28;20045;-66
2022/10/30 01:26:24;;;;;;;23.63;13.38;;;;;;;13.06;100.00;101601.88;5011453;28;20036;-67
2022/10/30 01:29:10;;;;;;;23.38;13.35;;;;;;;13.05;100.00;101609.28;5007167;28;20692;-64
2022/10/30 01:31:50;;;;;;;23.65;13.73;;;;;;;12.99;100.00;101605.53;4988234;28;20061;-66
2022/10/30 01:34:23;;;;;;;27.95;14.52;;;;;;;12.98;100.00;101606.63;5006235;28;20084;-66
2022/10/30 01:37:04;;;;;;;21.27;13.40;;;;;;;12.92;100.00;101607.50;5018289;28;20377;-67
2022/10/30 01:39:36;;;;;;;23.38;13.73;;;;;;;12.90;100.00;101604.16;5021560;28;20048;-68
2022/10/30 01:42:10;;;;;;;22.30;14.48;;;;;;;12.92;100.00;101610.25;5007439;28;20030;-66
2022/10/30 01:44:36;;;;;;;20.35;13.70;;;;;;;12.87;100.00;101610.09;5007712;28;20034;-67
2022/10/30 01:47:25;;;;;;;24.40;13.75;;;;;;;12.87;100.00;101615.63;5008898;28;20053;-64
2022/10/30 01:50:08;;;;;;;23.17;13.35;;;;;;;12.87;100.00;101612.03;5026456;28;20037;-66
2022/10/30 01:52:45;;;;;;;24.95;13.98;;;;;;;12.87;100.00;101614.78;5020615;28;20538;-66
2022/10/30 01:55:36;;;;;;;23.60;12.75;;;;;;;12.88;100.00;101613.72;5007422;28;20451;-65
2022/10/30 01:58:13;;;;;;;24.60;13.85;;;;;;;12.84;100.00;101606.97;5006962;28;20026;-67
2022/10/30 02:00:40;;;;;;;21.60;13.45;;;;;;;12.85;100.00;101615.00;5019265;28;20076;-67
2022/10/30 02:03:06;;;;;;;27.08;15.02;;;;;;;12.82;100.00;101615.47;5020157;28;20037;-67
2022/10/30 02:05:39;;;;;;;27.85;14.00;;;;;;;12.86;100.00;101613.09;5026265;28;20029;-67
2022/10/30 02:08:05;;;;;;;25.65;14.68;;;;;;;12.84;100.00;101616.09;5015639;28;20029;-65
2022/10/30 02:10:34;;;;;;;23.77;13.93;;;;;;;12.83;100.00;101610.81;5007085;28;20408;-66
2022/10/30 02:13:00;;;;;;;24.55;14.60;;;;;;;12.84;100.00;101616.09;5021379;28;20037;-66
2022/10/30 02:15:25;;;;;;;29.35;14.57;;;;;;;12.81;100.00;101627.56;5023975;28;20053;-65
2022/10/30 02:17:51;;;;;;;21.85;14.15;;;;;;;12.75;100.00;101622.97;5016221;28;20076;-66
2022/10/30 02:20:18;;;;;;;21.02;13.50;;;;;;;12.77;100.00;101617.22;5022545;28;20125;-67
2022/10/30 02:22:44;;;;;;;21.15;12.93;;;;;;;12.70;100.00;101611.78;5007123;28;20028;-63
2022/10/30 02:25:09;;;;;;;26.77;13.23;;;;;;;12.71;100.00;101611.53;5010504;28;20021;-67
2022/10/30 02:27:34;;;;;;;26.25;14.32;;;;;;;12.66;100.00;101610.53;5006882;28;20026;-67
2022/10/30 02:30:00;;;;;;;23.38;13.48;;;;;;;12.65;100.00;101623.47;5006990;28;20026;-65
2022/10/30 02:32:25;;;;;;;23.38;14.75;;;;;;;12.60;100.00;101620.53;5007172;28;20032;-67
2022/10/30 02:34:50;;;;;;;26.17;14.52;;;;;;;12.61;100.00;101624.13;5006045;28;20105;-66
2022/10/30 02:37:16;;;;;;;28.52;15.20;;;;;;;12.61;100.00;101624.13;5022325;28;20029;-66
2022/10/30 02:39:41;;;;;;;24.23;14.52;;;;;;;12.61;100.00;101626.91;5020134;28;20026;-66
2022/10/30 02:42:06;;;;;;;26.50;14.60;;;;;;;12.60;100.00;101625.22;5010803;28;20034;-65
2022/10/30 02:44:31;;;;;;;22.38;13.65;;;;;;;12.57;100.00;101626.53;5023675;28;20060;-67
2022/10/30 02:46:57;;;;;;;23.00;13.23;;;;;;;12.53;100.00;101630.78;5030523;28;20033;-66
2022/10/30 02:49:22;;;;;;;28.05;15.00;;;;;;;12.54;100.00;101637.97;5016060;28;20037;-67
2022/10/30 02:51:47;;;;;;;21.58;13.73;;;;;;;12.55;100.00;101633.31;5010277;28;20026;-67
2022/10/30 02:54:12;;;;;;;22.02;14.10;;;;;;;12.45;100.00;101626.38;5020401;28;20029;-64
2022/10/30 02:56:41;;;;;;;23.57;13.97;;;;;;;12.45;100.00;101634.66;5030341;28;20033;-67
2022/10/30 02:59:06;;;;;;;;;;;;;;;12.56;100.00;101633.06;5030637;28;20295;-67
2022/10/30 03:01:31;;;;;;;25.90;14.20;;;;;;;12.42;100.00;101632.38;5030359;28;19913;-67
2022/10/30 03:03:56;;;;;;;23.17;14.23;;;;;;;12.39;100.00;101627.28;5013630;28;20030;-65
2022/10/30 03:06:22;;;;;;;29.33;14.85;;;;;;;12.42;100.00;101635.13;5010300;28;20277;-66
2022/10/30 03:08:47;;;;;;;27.70;15.40;;;;;;;12.40;100.00;101622.63;5010176;28;20064;-64
2022/10/30 03:11:15;;;;;;;27.85;15.07;;;;;;;12.41;100.00;101618.78;5009290;28;20520;-65
2022/10/30 03:13:43;;;;;;;25.30;15.43;;;;;;;12.34;100.00;101618.84;5021253;28;20041;-67
2022/10/30 03:16:11;;;;;;;26.35;15.52;;;;;;;12.31;100.00;101613.78;5024009;28;20810;-66
2022/10/30 03:18:37;;;;;;;24.70;15.95;;;;;;;12.33;100.00;101628.19;5014637;28;20056;-66
2022/10/30 03:21:05;;;;;;;26.48;15.82;;;;;;;12.35;100.00;101625.19;5029201;28;20029;-67
2022/10/30 03:23:30;;;;;;;28.95;16.35;;;;;;;12.29;100.00;101615.09;5029583;28;20032;-67
2022/10/30 03:25:57;;;;;;;26.50;14.90;;;;;;;12.25;100.00;101611.91;5025022;28;20053;-65
2022/10/30 03:28:24;;;;;;;25.67;14.57;;;;;;;12.24;100.00;101618.50;5029816;28;20474;-66
2022/10/30 03:30:50;;;;;;;26.52;15.40;;;;;;;12.21;100.00;101613.44;5013333;28;20045;-66
2022/10/30 03:33:16;;;;;;;26.35;14.88;;;;;;;12.17;100.00;101617.72;5016923;28;20378;-64
2022/10/30 03:35:43;;;;;;;25.20;15.13;;;;;;;12.20;100.00;101620.00;5029314;28;20096;-66
2022/10/30 03:38:10;;;;;;;26.92;15.23;;;;;;;12.23;100.00;101615.97;5028593;28;20412;-66
2022/10/30 03:40:35;;;;;;;29.00;15.63;;;;;;;12.26;100.00;101621.03;5012887;28;20367;-65
2022/10/30 03:43:00;;;;;;;29.42;16.35;;;;;;;12.29;100.00;101621.44;5015475;28;20124;-65
2022/10/30 03:45:25;;;;;;;31.90;17.07;;;;;;;12.32;100.00;101621.00;5011233;28;20037;-67
2022/10/30 03:47:50;;;;;;;24.00;15.52;;;;;;;12.31;100.00;101618.44;5009076;28;20277;-67
2022/10/30 03:50:16;;;;;;;25.73;15.63;;;;;;;12.28;100.00;101619.75;5008953;28;20072;-66
2022/10/30 03:52:41;;;;;;;25.00;15.15;;;;;;;12.31;100.00;101626.72;5007659;28;20105;-67
2022/10/30 03:55:07;;;;;;;26.23;14.03;;;;;;;12.32;100.00;101629.25;5016921;28;20034;-67
2022/10/30 03:57:36;;;;;;;26.20;14.90;;;;;;;12.29;100.00;101628.84;5029057;28;20375;-66
2022/10/30 04:00:01;;;;;;;27.58;15.95;;;;;;;12.25;100.00;101625.69;5010710;28;20079;-66
2022/10/30 04:02:26;;;;;;;23.13;15.82;;;;;;;12.28;100.00;101636.28;5008180;28;20026;-66
2022/10/30 04:04:51;;;;;;;26.95;15.68;;;;;;;12.26;100.00;101638.38;5027843;28;20391;-66
2022/10/30 04:07:17;;;;;;;26.48;15.43;;;;;;;12.27;100.00;101633.75;5029123;28;20034;-64
2022/10/30 04:09:42;;;;;;;25.58;15.10;;;;;;;12.23;100.00;101635.25;5029043;28;20033;-65
2022/10/30 04:12:07;;;;;;;25.25;15.00;;;;;;;12.19;100.00;101641.19;5018834;28;20045;-64
2022/10/30 04:14:32;;;;;;;27.27;15.05;;;;;;;12.16;100.00;101643.53;5029093;28;20047;-67
2022/10/30 04:16:58;;;;;;;25.83;14.75;;;;;;;12.11;100.00;101644.22;5028396;28;20407;-67
2022/10/30 04:19:23;;;;;;;27.50;14.50;;;;;;;12.08;100.00;101641.06;5022943;28;20061;-67
2022/10/30 04:21:50;;;;;;;27.85;14.80;;;;;;;12.04;100.00;101634.31;5028124;28;20108;-65
2022/10/30 04:24:17;;;;;;;24.42;15.10;;;;;;;12.03;100.00;101627.13;5022924;28;20042;-64
2022/10/30 04:26:43;;;;;;;25.63;15.23;;;;;;;12.02;100.00;101631.78;5028835;28;20040;-64
2022/10/30 04:29:08;;;;;;;23.05;15.43;;;;;;;11.98;100.00;101626.94;5028339;28;20129;-67
2022/10/30 04:31:33;;;;;;;25.30;14.98;;;;;;;11.95;100.00;101623.56;5028791;28;20080;-67
2022/10/30 04:33:58;;;;;;;29.15;15.38;;;;;;;11.93;100.00;101633.94;5024809;28;20041;-65
2022/10/30 04:36:29;;;;;;;27.88;16.98;;;;;;;11.94;100.00;101623.78;5027617;28;20032;-65
2022/10/30 04:38:54;;;;;;;26.95;16.40;;;;;;;11.91;100.00;101632.47;5021087;28;20024;-66
2022/10/30 04:41:19;;;;;;;28.38;16.00;;;;;;;11.90;100.00;101634.38;5008738;28;20034;-66
2022/10/30 04:43:47;;;;;;;31.40;17.15;;;;;;;11.88;100.00;101631.03;5022640;28;20041;-66
2022/10/30 04:46:12;;;;;;;26.80;16.55;;;;;;;11.90;100.00;101620.63;5028426;28;20033;-64
2022/10/30 04:48:38;;;;;;;27.35;17.08;;;;;;;11.91;100.00;101608.56;5028245;28;20025;-66
2022/10/30 04:51:03;;;;;;;31.30;17.23;;;;;;;11.92;100.00;101609.41;5027559;28;20105;-66
2022/10/30 04:53:28;;;;;;;25.58;17.48;;;;;;;11.93;100.00;101605.59;5012265;28;20056;-66
2022/10/30 04:55:54;;;;;;;29.65;17.20;;;;;;;11.94;100.00;101596.25;5023993;28;20095;-67
2022/10/30 04:58:19;;;;;;;27.67;15.60;;;;;;;11.91;100.00;101602.19;5027995;28;20407;-67
2022/10/30 05:00:44;;;;;;;29.92;16.50;;;;;;;11.90;100.00;101600.50;5015517;28;20149;-67
2022/10/30 05:03:21;;;;;;;25.88;16.80;;;;;;;11.92;100.00;101598.41;5015289;28;20531;-64
2022/10/30 05:06:04;;;;;;;29.17;17.10;;;;;;;11.92;100.00;101601.16;5026597;28;20426;-65
2022/10/30 05:08:30;;;;;;;26.10;15.85;;;;;;;11.88;100.00;101600.75;5007468;28;20034;-67
2022/10/30 05:10:55;;;;;;;27.92;16.52;;;;;;;11.88;100.00;101600.75;5007736;28;20097;-67
2022/10/30 05:13:21;;;;;;;26.75;16.65;;;;;;;11.88;100.00;101602.66;5018922;28;20033;-66
2022/10/30 05:15:47;;;;;;;23.95;15.13;;;;;;;11.86;100.00;101605.63;5028202;28;20057;-65
2022/10/30 05:18:12;;;;;;;25.67;15.73;;;;;;;11.87;100.00;101612.81;5027527;28;20056;-66
2022/10/30 05:20:37;;;;;;;26.98;15.57;;;;;;;11.86;100.00;101604.75;5026000;28;20584;-67
2022/10/30 05:23:03;;;;;;;21.55;14.80;;;;;;;11.81;100.00;101604.53;5007955;28;20108;-67
2022/10/30 05:25:28;;;;;;;27.63;16.05;;;;;;;11.80;100.00;101602.88;5015142;28;20037;-66
2022/10/30 05:27:58;;;;;;;25.45;15.48;;;;;;;11.79;100.00;101610.28;5027309;28;20014;-67
2022/10/30 05:30:26;;;;;;;30.35;15.95;;;;;;;11.79;100.00;101615.78;5020663;28;20036;-65
2022/10/30 05:32:59;;;;;;;25.50;16.40;;;;;;;11.80;100.00;101616.63;5007791;28;20372;-67
2022/10/30 05:35:25;;;;;;;27.15;16.08;;;;;;;11.75;100.00;101617.28;5006623;28;20061;-67
2022/10/30 05:37:50;;;;;;;25.65;15.82;;;;;;;11.75;100.00;101628.28;5016466;28;20502;-66
2022/10/30 05:40:16;;;;;;;31.05;16.05;;;;;;;11.72;100.00;101626.00;5027834;28;20104;-66
2022/10/30 05:42:45;;;;;;;26.83;15.85;;;;;;;11.68;100.00;101622.84;5022491;28;20057;-65
2022/10/30 05:45:10;;;;;;;26.50;16.25;;;;;;;11.63;100.00;101622.66;5007344;28;20033;-66
2022/10/30 05:47:36;;;;;;;27.83;17.70;;;;;;;11.62;100.00;101620.13;5007481;28;20117;-65
2022/10/30 05:50:01;;;;;;;27.92;16.50;;;;;;;11.57;100.00;101620.78;5004523;28;20026;-66
2022/10/30 05:52:28;;;;;;;27.77;16.15;;;;;;;11.53;100.00;101616.75;5007541;28;20067;-66
2022/10/30 05:54:53;;;;;;;24.35;15.77;;;;;;;11.50;100.00;101621.84;5007781;28;20046;-67
2022/10/30 05:57:18;;;;;;;26.33;16.88;;;;;;;11.47;100.00;101617.63;5007262;28;20500;-64
2022/10/30 05:59:43;;;;;;;27.92;17.42;;;;;;;11.45;100.00;101614.25;5007970;28;20022;-67
2022/10/30 06:02:09;;;;;;;29.98;15.73;;;;;;;11.46;100.00;101615.97;5015720;28;20041;-67
2022/10/30 06:04:34;;;;;;;25.17;15.73;;;;;;;11.41;100.00;101613.03;5006699;28;20033;-64
2022/10/30 06:06:59;;;;;;;27.48;15.48;;;;;;;11.36;100.00;101608.16;5007315;28;20140;-67
2022/10/30 06:09:24;;;;;;;25.50;14.95;;;;;;;11.30;100.00;101617.25;5018022;28;20481;-67
2022/10/30 06:11:50;;;;;;;26.38;17.13;;;;;;;11.28;100.00;101613.06;5026615;28;20060;-67
2022/10/30 06:14:15;;;;;;;28.20;16.50;;;;;;;11.26;100.00;101613.28;5026931;28;20040;-66
2022/10/30 06:16:40;;;;;;;30.58;16.65;;;;;;;11.23;100.00;101613.69;5026867;28;20068;-67
2022/10/30 06:19:05;;;;;;;28.27;16.20;;;;;;;11.23;100.00;101613.69;5022710;28;20069;-67
2022/10/30 06:21:31;;;;;;;27.02;16.50;;;;;;;11.24;100.00;101623.63;5021074;28;20033;-67
2022/10/30 06:23:57;;;;;;;22.95;15.68;;;;;;;11.17;100.00;101615.41;5007692;28;20048;-66
2022/10/30 06:26:23;;;;;;;26.42;16.90;;;;;;;11.16;100.00;101615.63;5006939;28;20053;-63
2022/10/30 06:28:48;;;;;;;26.20;15.77;;;;;;;11.13;100.00;101610.56;5006983;28;20057;-64
2022/10/30 06:31:13;;;;;;;27.75;15.85;;;;;;;11.13;100.00;101610.56;5018398;28;20029;-66
2022/10/30 06:33:38;;;;;;;26.00;15.33;;;;;;;11.10;100.00;101609.09;5016669;28;20030;-67
2022/10/30 06:36:04;;;;;;;27.05;16.77;;;;;;;11.10;100.00;101605.47;5024243;28;20750;-66
2022/10/30 06:38:29;;;;;;;27.50;17.67;;;;;;;11.07;100.00;101604.03;5011750;28;20034;-67
2022/10/30 06:40:54;;;;;;;26.83;16.63;;;;;;;11.05;100.00;101599.78;5016829;28;20025;-67
2022/10/30 06:43:20;;;;;;;27.53;17.07;;;;;;;11.05;100.00;101605.28;5026721;28;20025;-66
2022/10/30 06:45:45;;;;;;;26.98;15.70;;;;;;;11.06;100.00;101607.00;5025985;28;20953;-66
2022/10/30 06:48:10;;;;;;;25.77;16.45;;;;;;;11.03;100.00;101613.75;5023633;28;20041;-64
2022/10/30 06:50:35;;;;;;;26.38;16.10;;;;;;;11.04;100.00;101606.34;5008009;28;20038;-64
2022/10/30 06:53:01;;;;;;;21.77;16.10;;;;;;;11.04;100.00;101601.69;5006030;28;20422;-67
2022/10/30 06:55:26;;;;;;;24.17;16.77;;;;;;;11.07;100.00;101606.78;5006564;28;20032;-67
2022/10/30 06:57:55;;;;;;;27.77;16.30;;;;;;;11.10;100.00;101610.97;5007535;28;20073;-67
2022/10/30 07:00:21;;;;;;;27.50;17.15;;;;;;;11.18;100.00;101608.84;5026495;28;20160;-67
2022/10/30 07:02:57;;;;;;;30.38;17.23;;;;;;;11.20;100.00;101608.63;5026662;28;20030;-67
2022/10/30 07:05:22;;;;;;;27.75;16.23;;;;;;;11.19;100.00;101598.69;5007265;28;20203;-68
2022/10/30 07:07:47;;;;;;;23.20;16.88;;;;;;;11.24;100.00;101598.03;5006350;28;20109;-65
2022/10/30 07:10:13;;;;;;;26.52;16.33;;;;;;;11.23;100.00;101591.69;5006324;28;20705;-65
2022/10/30 07:12:38;;;;;;;27.33;16.55;;;;;;;11.25;100.00;101597.81;5020337;28;20038;-65
2022/10/30 07:15:03;;;;;;;27.50;15.93;;;;;;;11.27;100.00;101601.22;5025833;28;20030;-67
2022/10/30 07:17:29;;;;;;;24.23;15.93;;;;;;;11.29;100.00;101595.47;5026213;28;20029;-67
2022/10/30 07:19:54;;;;;;;25.42;16.20;;;;;;;11.34;100.00;101596.53;5025731;28;20029;-67
2022/10/30 07:22:19;;;;;;;27.02;17.48;;;;;;;11.41;100.00;101602.84;5024782;28;20353;-66
2022/10/30 07:24:44;;;;;;;28.02;16.92;;;;;;;11.50;100.00;101608.09;5009188;28;20026;-67
2022/10/30 07:27:10;;;;;;;28.35;16.65;;;;;;;11.54;100.00;101596.44;5008944;28;20128;-67
2022/10/30 07:29:35;;;;;;;26.98;16.38;;;;;;;11.61;100.00;101602.78;5010191;28;20103;-67
2022/10/30 07:32:00;;;;;;;29.50;16.15;;;;;;;11.68;100.00;101598.06;5014718;28;20026;-65
2022/10/30 07:34:26;;;;;;;27.33;16.60;;;;;;;11.78;100.00;101605.00;5028890;28;20033;-67
2022/10/30 07:36:51;;;;;;;26.77;17.88;;;;;;;11.84;100.00;101609.66;5006747;28;20034;-66
2022/10/30 07:39:16;;;;;;;23.15;15.57;;;;;;;11.88;100.00;101609.00;5009656;28;20056;-67
2022/10/30 07:41:41;;;;;;;24.95;17.08;;;;;;;11.92;100.00;101615.75;5009430;28;20030;-66
2022/10/30 07:44:07;;;;;;;25.00;17.00;;;;;;;11.99;100.00;101614.88;5006610;28;20033;-67
2022/10/30 07:46:32;;;;;;;24.20;16.88;;;;;;;12.06;100.00;101612.91;5020171;28;20598;-67
2022/10/30 07:48:57;;;;;;;27.45;17.75;;;;;;;12.14;100.00;101607.97;5028684;28;20087;-67
2022/10/30 07:51:24;;;;;;;27.40;19.90;;;;;;;12.27;100.00;101601.53;5009727;28;20067;-64
2022/10/30 07:53:49;;;;;;;31.83;18.83;;;;;;;12.31;100.00;101597.25;5008560;28;20505;-65
2022/10/30 07:56:14;;;;;;;26.65;18.95;;;;;;;12.43;100.00;101597.38;5009315;28;20088;-67
2022/10/30 07:58:39;;;;;;;31.40;19.80;;;;;;;12.55;100.00;101592.81;5009071;28;20365;-68
2022/10/30 08:01:04;;;;;;;28.27;19.63;;;;;;;12.64;100.00;101601.66;5016188;28;20045;-64
2022/10/30 08:03:30;;;;;;;38.33;23.58;;;;;;;12.81;100.00;101610.19;5012739;28;20042;-67
2022/10/30 08:05:55;;;;;;;34.97;23.83;;;;;;;12.92;100.00;101607.50;5008571;28;20436;-68
2022/10/30 08:08:20;;;;;;;35.42;23.60;;;;;;;12.99;100.00;101605.53;5009204;28;20033;-67
2022/10/30 08:10:46;;;;;;;25.83;19.70;;;;;;;13.08;100.00;101599.75;5029057;28;20042;-64
2022/10/30 08:13:13;;;;;;;32.58;21.80;;;;;;;13.23;100.00;101603.84;5008635;28;21572;-66
2022/10/30 08:15:38;;;;;;;36.47;22.20;;;;;;;13.48;100.00;101597.34;5008940;28;20025;-66
2022/10/30 08:18:03;;;;;;;31.42;21.35;;;;;;;13.69;100.00;101596.06;5008056;28;20108;-67
2022/10/30 08:20:29;;;;;;;32.25;20.35;;;;;;;13.91;100.00;101593.59;5024881;28;20042;-67
2022/10/30 08:22:56;;;;;;;29.20;20.35;;;;;;;14.08;100.00;101596.53;5008662;28;20116;-67
2022/10/30 08:25:24;;;;;;;34.58;20.95;;;;;;;14.47;100.00;101584.00;5028172;28;20104;-64
2022/10/30 08:27:51;;;;;;;29.92;20.10;;;;;;;14.83;100.00;101587.66;5009975;28;20083;-66
2022/10/30 08:30:16;;;;;;;27.05;18.88;;;;;;;15.50;99.60;101583.31;5024732;28;20044;-66
2022/10/30 08:32:41;;;;;;;29.85;18.48;;;;;;;16.40;94.13;101589.19;5023303;28;20041;-67
2022/10/30 08:35:07;;;;;;;23.48;16.80;;;;;;;17.30;88.80;101599.19;5013403;28;20048;-67
2022/10/30 08:37:32;;;;;;;25.23;15.10;;;;;;;18.38;81.79;101596.50;5024650;28;20380;-66
2022/10/30 08:39:57;;;;;;;25.27;14.60;;;;;;;19.23;77.38;101596.59;5026797;28;20567;-66
2022/10/30 08:42:23;;;;;;;28.13;14.32;;;;;;;19.39;74.72;101595.56;5007986;28;20038;-66
2022/10/30 08:44:48;;;;;;;24.07;12.77;;;;;;;19.63;72.34;101585.66;5012123;28;20038;-65
2022/10/30 08:47:13;;;;;;;24.58;14.00;;;;;;;20.14;70.65;101582.16;5008920;28;20649;-66
2022/10/30 08:49:38;;;;;;;24.63;12.83;;;;;;;20.35;68.61;101583.84;5006955;28;20030;-67
2022/10/30 08:52:07;;;;;;;22.27;12.70;;;;;;;20.76;67.61;101588.59;5008182;28;20826;-64
2022/10/30 08:54:32;;;;;;;21.45;12.82;;;;;;;21.11;65.13;101588.53;5007910;28;20755;-67
2022/10/30 08:56:58;;;;;;;21.93;12.87;;;;;;;21.13;64.47;101591.88;5006469;28;20022;-67
2022/10/30 08:59:23;;;;;;;23.40;12.83;;;;;;;21.22;63.48;101592.13;5008410;28;20691;-67
2022/10/30 09:01:49;;;;;;;24.45;12.65;;;;;;;21.19;63.51;101590.75;5007096;28;20284;-66
2022/10/30 09:04:15;;;;;;;20.63;12.05;;;;;;;21.71;63.35;101592.25;5013942;28;20115;-67
2022/10/30 09:06:40;;;;;;;24.15;12.23;;;;;;;22.85;59.05;101604.31;5026286;28;20487;-66
2022/10/30 09:09:05;;;;;;;22.80;11.35;;;;;;;23.64;57.56;101588.88;5027344;28;20040;-65
2022/10/30 09:11:31;;;;;;;23.23;10.73;;;;;;;24.68;54.55;101584.22;5027662;28;20099;-66
2022/10/30 09:13:56;;;;;;;21.15;11.45;;;;;;;25.36;51.13;101581.53;5028800;28;20143;-66
2022/10/30 09:16:21;;;;;;;21.42;10.80;;;;;;;25.94;50.80;101582.81;5025640;28;20502;-67
2022/10/30 09:18:47;;;;;;;25.25;11.88;;;;;;;26.19;47.69;101577.75;5007492;28;20072;-66
2022/10/30 09:21:12;;;;;;;19.75;10.77;;;;;;;26.10;49.37;101574.84;5007509;28;20022;-65
2022/10/30 09:23:37;;;;;;;22.45;11.68;;;;;;;25.80;47.99;101570.75;5007940;28;20044;-66
2022/10/30 09:26:03;;;;;;;19.73;11.33;;;;;;;25.53;48.19;101568.81;5027554;28;20520;-66
2022/10/30 09:28:28;;;;;;;21.43;11.67;;;;;;;25.23;49.17;101559.84;5013818;28;20301;-65
2022/10/30 09:30:55;;;;;;;20.57;11.60;;;;;;;25.14;49.38;101563.72;5007454;28;20273;-66
2022/10/30 09:33:21;;;;;;;23.05;10.88;;;;;;;25.21;49.75;101559.34;5002264;28;20308;-66
2022/10/30 09:35:46;;;;;;;19.65;11.13;;;;;;;24.91;51.67;101565.53;5006236;28;20041;-66
2022/10/30 09:38:11;;;;;;;17.38;10.57;;;;;;;24.59;51.74;101568.09;5007246;28;20030;-66
2022/10/30 09:41:05;;;;;;;20.42;11.02;;;;;;;24.50;54.27;101574.72;5007006;28;20029;-66
2022/10/30 09:43:57;;;;;;;20.35;11.88;;;;;;;24.76;55.56;101578.72;5009638;28;20036;-66
2022/10/30 09:46:50;;;;;;;21.10;10.80;;;;;;;25.68;53.44;101571.28;5027066;28;20045;-66
2022/10/30 09:49:33;;;;;;;21.17;11.20;;;;;;;26.47;49.87;101578.50;5010367;28;20029;-66
2022/10/30 09:52:13;;;;;;;20.83;10.80;;;;;;;26.21;47.76;101581.91;5006723;28;20010;-66
2022/10/30 09:55:09;;;;;;;19.73;10.60;;;;;;;26.49;48.91;101599.56;5006095;28;20045;-66
2022/10/30 09:58:01;;;;;;;19.33;11.63;;;;;;;26.37;49.66;101602.91;5006559;28;20357;-66
2022/10/30 10:00:46;;;;;;;23.30;11.57;;;;;;;25.19;52.21;101609.41;5006953;28;20033;-66
2022/10/30 10:03:39;;;;;;;19.05;11.98;;;;;;;24.04;53.72;101609.94;5003930;28;20061;-65
2022/10/30 10:06:15;;;;;;;23.50;12.50;;;;;;;23.19;55.88;101613.50;5007113;28;20032;-65
2022/10/30 10:08:46;;;;;;;19.05;12.65;;;;;;;23.04;56.38;101619.28;5006423;28;20084;-68
2022/10/30 10:11:19;;;;;;;22.20;12.80;;;;;;;22.89;57.32;101619.44;5006874;28;20042;-65
2022/10/30 10:13:49;;;;;;;22.98;11.75;;;;;;;22.82;57.73;101610.50;5006975;28;20539;-66
2022/10/30 10:16:25;;;;;;;22.88;12.00;;;;;;;24.05;56.75;101596.72;5006479;28;20022;-65
2022/10/30 10:19:09;;;;;;;22.00;11.55;;;;;;;25.80;53.27;101599.75;5004117;28;20049;-65
2022/10/30 10:21:42;;;;;;;24.15;11.13;;;;;;;26.85;47.92;101591.00;5007144;28;20037;-65
2022/10/30 10:24:29;;;;;;;20.58;10.98;;;;;;;28.15;48.69;101587.81;5004613;28;20986;-64
2022/10/30 10:27:11;;;;;;;17.95;9.38;;;;;;;28.37;43.63;101586.81;5006875;28;20057;-65
2022/10/30 10:29:49;;;;;;;20.48;8.98;;;;;;;28.43;44.71;101583.47;5006711;28;20044;-65
2022/10/30 10:32:41;;;;;;;19.77;8.57;;;;;;;28.72;44.67;101587.59;5006981;28;20028;-64
2022/10/30 10:35:28;;;;;;;17.70;8.35;;;;;;;28.75;45.03;101589.78;5005475;28;20048;-64
2022/10/30 10:38:16;;;;;;;17.73;7.93;;;;;;;28.42;43.58;101581.81;5005475;28;20026;-65
2022/10/30 10:40:51;;;;;;;13.75;7.70;;;;;;;28.62;43.65;101579.47;5006801;28;20276;-64
2022/10/30 10:43:45;;;;;;;16.23;8.45;;;;;;;28.75;43.08;101581.28;5006403;28;20396;-64
2022/10/30 10:46:35;;;;;;;13.25;8.13;;;;;;;28.72;43.30;101575.47;4995034;28;20061;-64
2022/10/30 10:49:06;;;;;;;17.25;7.82;;;;;;;28.41;40.63;101568.03;4985919;28;20026;-64
2022/10/30 10:52:00;;;;;;;16.08;8.00;;;;;;;28.92;43.03;101564.25;4987159;28;20030;-64
2022/10/30 10:54:49;;;;;;;18.45;8.40;;;;;;;28.80;40.55;101577.44;4986473;28;20038;-64
2022/10/30 10:57:35;;;;;;;21.52;7.95;;;;;;;29.68;42.27;101576.75;4991110;28;20064;-64
2022/10/30 11:00:15;;;;;;;18.45;8.38;;;;;;;29.87;40.36;101582.81;5008408;28;20105;-64
2022/10/30 11:02:50;;;;;;;17.42;7.88;;;;;;;29.89;39.28;101573.94;5008811;28;20084;-64
2022/10/30 11:05:24;;;;;;;17.60;7.43;;;;;;;29.44;39.53;101574.53;5007424;28;20116;-64
2022/10/30 11:07:50;;;;;;;15.77;7.45;;;;;;;28.96;39.63;101575.75;5009048;28;20026;-64
2022/10/30 11:10:18;;;;;;;14.05;7.20;;;;;;;29.31;40.35;101575.63;5009999;28;20391;-64
2022/10/30 11:12:43;;;;;;;;;;;;;;;30.86;43.35;101569.91;5010770;28;20026;-64